Latest Coastal Weather Observations for Parndana

IDS60701

Issued at 5:45 pm CDT Saturday 25 October 2014 (issued every 10 minutes, with the page automatically refreshed every 10 minutes)

About coastal observations | Map of coastal stations | Coastal observations for SA | Marine services | Other Formats
Station Details ID: 022843 Name: PARNDANA CFS AWS Lat: -35.79 Lon: 137.25 Height: 165.0 m
Data from the previous 72 hours. | See also: Recent months at Parndana
Date/Time
CDT
Temp

°C
Wind Pressure Rain
since 9am
mm
Weather Cloud Vis
km
Sea
Height
m
Swell
Dir
 
Speed
knots
Gust
knots
hPa Trend Height
m
Period
s
Dir
25/05:30pm 18.3 SE 7 9 - - 0.0 - - - - - - -
25/05:00pm 18.9 S 8 12 - - 0.0 - - - - - - -
25/04:30pm 19.2 S 8 11 - - 0.0 - - - - - - -
25/04:00pm 20.0 SSE 8 12 - - 0.0 - - - - - - -
25/03:30pm 20.0 SSE 7 11 - - 0.0 - - - - - - -
25/03:00pm 20.3 S 7 10 - - 0.0 - - - - - - -
25/02:30pm 21.3 S 7 11 - - 0.0 - - - - - - -
25/02:00pm 20.3 SSE 7 11 - - 0.0 - - - - - - -
25/01:30pm 20.6 SSE 6 10 - - 0.0 - - - - - - -
25/01:00pm 20.9 S 2 6 - - 0.0 - - - - - - -
25/12:30pm 20.1 SSE 4 9 - - 0.0 - - - - - - -
25/12:00pm 19.2 SSW 5 9 - - 0.0 - - - - - - -
25/11:30am 18.6 S 4 8 - - 0.0 - - - - - - -
25/11:00am 18.2 S 4 10 - - 0.0 - - - - - - -
25/10:30am 17.0 SW 3 5 - - 0.0 - - - - - - -
25/10:00am 16.0 SSW 2 4 - - 0.0 - - - - - - -
25/09:30am 16.6 E 2 4 - - 0.0 - - - - - - -
25/09:00am 15.4 ESE 3 5 - - 0.0 - - - - - - -
25/08:30am 14.0 SE 3 5 - - 0.0 - - - - - - -
25/08:00am 13.3 SE 4 5 - - 0.0 - - - - - - -
25/07:30am 13.0 SSE 3 4 - - 0.0 - - - - - - -
25/07:00am 12.8 SSE 5 6 - - 0.0 - - - - - - -
25/06:30am 12.7 SSE 4 5 - - 0.0 - - - - - - -
25/06:00am 12.8 SSE 5 6 - - 0.0 - - - - - - -
25/05:30am 12.8 SSE 5 6 - - 0.0 - - - - - - -
25/05:00am 12.7 SSE 6 8 - - 0.0 - - - - - - -
25/04:30am 12.8 SSE 5 7 - - 0.0 - - - - - - -
25/04:00am 12.8 SE 7 10 - - 0.0 - - - - - - -
25/03:30am 13.0 SE 6 8 - - 0.0 - - - - - - -
25/03:00am 12.9 SSE 6 8 - - 0.0 - - - - - - -
25/02:30am 13.0 SSE 5 6 - - 0.0 - - - - - - -
25/02:00am 12.9 SE 5 8 - - 0.0 - - - - - - -
25/01:30am 12.8 SSE 6 8 - - 0.0 - - - - - - -
25/01:00am 12.3 SSE 5 7 - - 0.0 - - - - - - -
25/12:30am 11.0 S 3 4 - - 0.0 - - - - - - -
25/12:00am 11.1 S 3 4 - - 0.0 - - - - - - -
 
Date/Time
CDT
Temp

°C
Wind Pressure Rain
since 9am
mm
Weather Cloud Vis
km
Sea
Height
m
Swell
Dir
 
Speed
knots
Gust
knots
hPa Trend Height
m
Period
s
Dir
24/11:30pm 11.3 S 3 5 - - 0.0 - - - - - - -
24/11:00pm 12.1 S 6 8 - - 0.0 - - - - - - -
24/10:30pm 12.3 S 8 10 - - 0.0 - - - - - - -
24/10:00pm 12.4 S 7 8 - - 0.0 - - - - - - -
24/09:30pm 12.8 S 8 10 - - 0.0 - - - - - - -
24/09:00pm 12.7 S 6 8 - - 0.0 - - - - - - -
24/08:30pm 12.9 S 6 8 - - 0.0 - - - - - - -
24/08:00pm 13.3 S 6 8 - - 0.0 - - - - - - -
24/07:30pm 14.1 S 9 11 - - 0.0 - - - - - - -
24/07:00pm 14.9 S 10 14 - - 0.0 - - - - - - -
24/06:30pm 16.0 S 10 13 - - 0.0 - - - - - - -
24/06:00pm 16.8 S 11 15 - - 0.0 - - - - - - -
24/05:30pm 18.5 S 10 15 - - 0.0 - - - - - - -
24/05:00pm 19.1 S 12 15 - - 0.0 - - - - - - -
24/04:30pm 20.8 SSE 11 15 - - 0.0 - - - - - - -
24/04:00pm 23.1 SSE 10 13 - - 0.0 - - - - - - -
24/03:30pm 22.9 S 7 10 - - 0.0 - - - - - - -
24/03:00pm 25.1 S 7 11 - - 0.0 - - - - - - -
24/02:30pm 25.1 S 7 10 - - 0.0 - - - - - - -
24/02:00pm 25.0 SSE 10 13 - - 0.0 - - - - - - -
24/01:30pm 26.2 S 6 8 - - 0.0 - - - - - - -
24/01:00pm 25.9 S 10 13 - - 0.0 - - - - - - -
24/12:30pm 27.3 W 8 12 - - 0.0 - - - - - - -
24/12:00pm 26.3 W 8 13 - - 0.0 - - - - - - -
24/11:30am 25.1 W 8 11 - - 0.0 - - - - - - -
24/11:00am 24.3 WNW 9 14 - - 0.0 - - - - - - -
24/10:30am 23.4 NW 8 12 - - 0.0 - - - - - - -
24/10:00am 22.1 NW 9 13 - - 0.0 - - - - - - -
24/09:30am 21.1 NW 10 16 - - 0.0 - - - - - - -
24/09:00am 19.6 NW 8 12 - - 0.0 - - - - - - -
24/08:30am 16.1 NW 8 10 - - 0.0 - - - - - - -
24/08:00am 14.3 NNW 8 11 - - 0.0 - - - - - - -
24/07:30am 13.2 NNW 8 12 - - 0.0 - - - - - - -
24/07:00am 12.3 NNW 8 10 - - 0.0 - - - - - - -
24/06:30am 12.3 NNW 9 13 - - 0.0 - - - - - - -
24/06:00am 12.2 NNW 12 17 - - 0.0 - - - - - - -
24/05:30am 11.4 NNW 7 10 - - 0.0 - - - - - - -
24/05:00am 10.1 N 7 10 - - 0.0 - - - - - - -
24/04:30am 9.9 N 7 10 - - 0.0 - - - - - - -
24/04:00am 10.5 N 5 7 - - 0.0 - - - - - - -
24/03:30am 10.4 NNE 4 6 - - 0.0 - - - - - - -
24/03:00am 10.9 NNE 4 5 - - 0.0 - - - - - - -
24/02:30am 11.1 N 5 7 - - 0.0 - - - - - - -
24/02:00am 11.4 NE 1 4 - - 0.0 - - - - - - -
24/01:30am 11.6 E 1 2 - - 0.0 - - - - - - -
24/01:00am 11.8 ESE 2 3 - - 0.0 - - - - - - -
24/12:30am 12.1 E 2 3 - - 0.0 - - - - - - -
24/12:00am 12.1 ESE 2 5 - - 0.0 - - - - - - -
 
Date/Time
CDT
Temp

°C
Wind Pressure Rain
since 9am
mm
Weather Cloud Vis
km
Sea
Height
m
Swell
Dir
 
Speed
knots
Gust
knots
hPa Trend Height
m
Period
s
Dir
23/11:30pm 12.1 SE 3 5 - - 0.0 - - - - - - -
23/11:00pm 12.1 SSE 5 7 - - 0.0 - - - - - - -
23/10:30pm 12.2 S 4 6 - - 0.0 - - - - - - -
23/10:00pm 12.3 S 6 8 - - 0.0 - - - - - - -
23/09:30pm 11.9 SSE 6 8 - - 0.0 - - - - - - -
23/09:00pm 11.6 SSE 4 6 - - 0.0 - - - - - - -
23/08:30pm 11.0 S 5 6 - - 0.0 - - - - - - -
23/08:00pm 12.0 S 5 6 - - 0.0 - - - - - - -
23/07:30pm 13.2 S 6 7 - - 0.0 - - - - - - -
23/07:00pm 15.1 S 5 7 - - 0.0 - - - - - - -
23/06:30pm 15.6 SSE 5 6 - - 0.0 - - - - - - -
23/06:00pm 16.1 SSE 6 9 - - 0.0 - - - - - - -
23/05:30pm 17.0 SSE 6 8 - - 0.0 - - - - - - -
23/05:00pm 17.6 SSE 8 12 - - 0.0 - - - - - - -
23/04:30pm 17.6 SSE 9 13 - - 0.0 - - - - - - -
23/04:00pm 18.2 SE 7 10 - - 0.0 - - - - - - -
23/03:30pm 17.6 SE 9 13 - - 0.0 - - - - - - -
23/03:00pm 17.9 SE 8 12 - - 0.0 - - - - - - -
23/02:30pm 17.6 SSE 8 14 - - 0.0 - - - - - - -
23/02:00pm 17.8 SSE 10 14 - - 0.0 - - - - - - -
23/01:30pm 17.4 SE 10 15 - - 0.0 - - - - - - -
23/01:00pm 16.5 SSE 10 14 - - 0.0 - - - - - - -
23/12:30pm 15.7 SE 10 14 - - 0.0 - - - - - - -
23/12:00pm 15.7 SE 11 15 - - 0.0 - - - - - - -
23/11:30am 14.6 SE 11 15 - - 0.0 - - - - - - -
23/11:00am 14.8 SE 12 18 - - 0.0 - - - - - - -
23/10:30am 14.3 SE 11 15 - - 0.0 - - - - - - -
23/10:00am 13.4 SE 11 15 - - 0.0 - - - - - - -
23/09:30am 13.0 SE 10 15 - - 0.0 - - - - - - -
23/09:00am 13.2 SE 10 14 - - 0.0 - - - - - - -
23/08:30am 12.7 SE 11 15 - - 0.0 - - - - - - -
23/08:00am 12.3 SE 10 14 - - 0.0 - - - - - - -
23/07:30am 12.2 SE 10 14 - - 0.0 - - - - - - -
23/07:00am 12.3 SSE 11 15 - - 0.0 - - - - - - -
23/06:30am 12.2 SE 12 15 - - 0.0 - - - - - - -
23/06:00am 12.2 SE 11 14 - - 0.0 - - - - - - -
23/05:30am 12.3 SE 10 15 - - 0.0 - - - - - - -
23/05:00am 12.4 SSE 10 14 - - 0.0 - - - - - - -
23/04:30am 12.4 SSE 11 16 - - 0.0 - - - - - - -
23/04:00am 12.5 SE 10 15 - - 0.0 - - - - - - -
23/03:30am 12.5 SSE 11 16 - - 0.0 - - - - - - -
23/03:00am 12.5 SSE 11 16 - - 0.0 - - - - - - -
23/02:30am 12.3 SSE 12 19 - - 0.0 - - - - - - -
23/02:00am 12.4 SSE 11 15 - - 0.0 - - - - - - -
23/01:30am 12.4 SSE 11 16 - - 0.0 - - - - - - -
23/01:00am 12.4 SSE 14 18 - - 0.0 - - - - - - -
23/12:30am 12.3 SSE 11 15 - - 0.0 - - - - - - -
23/12:00am 12.4 SSE 12 16 - - 0.0 - - - - - - -
 
Date/Time
CDT
Temp

°C
Wind Pressure Rain
since 9am
mm
Weather Cloud Vis
km
Sea
Height
m
Swell
Dir
 
Speed
knots
Gust
knots
hPa Trend Height
m
Period
s
Dir
22/11:30pm 12.3 SSE 14 18 - - 0.0 - - - - - - -
22/11:00pm 12.2 SSE 13 18 - - 0.0 - - - - - - -
22/10:30pm 12.3 SSE 12 17 - - 0.0 - - - - - - -
22/10:00pm 12.3 SSE 12 15 - - 0.0 - - - - - - -
22/09:30pm 12.5 SSE 12 15 - - 0.0 - - - - - - -
22/09:00pm 12.7 SSE 13 18 - - 0.0 - - - - - - -
22/08:30pm 12.7 SSE 13 17 - - 0.0 - - - - - - -
22/08:00pm 12.9 SSE 14 17 - - 0.0 - - - - - - -
22/07:30pm 13.0 S 13 19 - - 0.0 - - - - - - -
22/07:00pm 13.3 S 12 17 - - 0.0 - - - - - - -
22/06:30pm 13.8 S 15 21 - - 0.0 - - - - - - -
22/06:00pm 14.2 S 16 21 - - 0.0 - - - - - - -

Other Formats:

Comma delimited format used in spreadsheet applications
http://www.bom.gov.au/fwo/IDS60701/IDS60701.94807.axf

JavaScript Object Notation format (JSON) in row-major order
http://www.bom.gov.au/fwo/IDS60701/IDS60701.94807.json